Time;durP1;ratioP1;P1;durP2;ratioP2;P2;SDS_P1;SDS_P2;PMS_P1;PMS_P2;Temp;Humidity;BMP_temperature;BMP_pressure;BME280_temperature;BME280_humidity;BME280_pressure;Samples;Min_cycle;Max_cycle;Signal;HPM_P1;HPM_P2
2022/06/25 05:30:51;;;;;;;10.43;9.52;;;18.80;99.90;;;;;;4646966;30;20549;-85
2022/06/25 05:33:17;;;;;;;10.23;9.30;;;18.80;99.90;;;;;;4660526;30;20054;-85
2022/06/25 05:35:43;;;;;;;9.20;8.35;;;18.90;99.90;;;;;;4664683;30;20129;-85
2022/06/25 05:38:08;;;;;;;11.30;8.52;;;19.00;99.90;;;;;;4650471;30;20046;-85
2022/06/25 05:40:35;;;;;;;8.95;8.05;;;19.10;99.90;;;;;;4650811;30;20051;-85
2022/06/25 05:43:01;;;;;;;8.80;7.95;;;19.20;99.90;;;;;;4668100;30;20039;-85
2022/06/25 05:45:26;;;;;;;8.32;7.60;;;19.20;99.90;;;;;;4661583;30;20050;-85
2022/06/25 05:47:52;;;;;;;8.77;7.90;;;19.20;99.90;;;;;;4664215;30;20112;-84
2022/06/25 05:50:17;;;;;;;7.75;6.82;;;19.30;99.90;;;;;;4667738;30;20055;-85
2022/06/25 05:52:43;;;;;;;9.75;7.38;;;19.30;99.90;;;;;;4667751;30;20074;-85
2022/06/25 05:55:09;;;;;;;7.22;6.53;;;19.20;99.90;;;;;;4640334;30;20055;-85
2022/06/25 05:57:34;;;;;;;8.05;6.82;;;19.20;99.90;;;;;;4661515;30;20053;-85
2022/06/25 06:00:00;;;;;;;8.10;6.28;;;19.10;99.90;;;;;;4645926;30;20087;-85
2022/06/25 06:02:26;;;;;;;7.43;6.80;;;19.00;99.90;;;;;;4651699;30;20105;-85
2022/06/25 06:04:54;;;;;;;7.22;6.50;;;18.90;99.90;;;;;;4656087;30;20434;-85
2022/06/25 06:07:19;;;;;;;7.72;6.50;;;18.80;99.90;;;;;;4664643;30;20046;-85
2022/06/25 06:09:45;;;;;;;7.47;6.82;;;18.80;99.90;;;;;;4655449;30;20113;-84
2022/06/25 06:12:10;;;;;;;8.57;7.03;;;18.70;99.90;;;;;;4664898;30;20125;-85
2022/06/25 06:14:36;;;;;;;9.27;7.55;;;18.60;99.90;;;;;;4656649;30;20568;-85
2022/06/25 06:17:02;;;;;;;9.30;6.90;;;18.60;99.90;;;;;;4671166;30;20061;-84
2022/06/25 06:19:27;;;;;;;8.57;7.68;;;18.60;99.90;;;;;;4653758;30;20047;-84
2022/06/25 06:21:53;;;;;;;8.10;7.03;;;18.60;99.90;;;;;;4652352;30;20399;-84
2022/06/25 06:24:19;;;;;;;8.32;6.88;;;18.60;99.90;;;;;;4654197;30;20046;-84
2022/06/25 06:26:44;;;;;;;8.07;6.70;;;18.50;99.90;;;;;;4658910;30;20039;-86
2022/06/25 06:29:10;;;;;;;8.02;7.22;;;18.50;99.90;;;;;;4646310;30;20586;-85
2022/06/25 06:31:35;;;;;;;11.20;6.63;;;18.50;99.90;;;;;;4659939;30;20050;-85
2022/06/25 06:34:01;;;;;;;9.18;8.27;;;18.50;99.90;;;;;;4650651;30;20399;-85
2022/06/25 06:36:27;;;;;;;8.15;6.22;;;18.50;99.90;;;;;;4640031;30;20074;-86
2022/06/25 06:38:52;;;;;;;8.20;7.50;;;18.50;99.90;;;;;;4660363;30;20423;-84
2022/06/25 06:41:18;;;;;;;8.60;7.80;;;18.50;99.90;;;;;;4653168;30;20047;-86
2022/06/25 06:43:44;;;;;;;7.28;6.57;;;18.60;99.90;;;;;;4656614;30;20046;-85
2022/06/25 06:46:13;;;;;;;6.75;5.88;;;18.60;99.90;;;;;;4678145;30;20046;-85
2022/06/25 06:48:39;;;;;;;7.13;5.78;;;18.70;99.90;;;;;;4678180;30;20443;-85
2022/06/25 06:51:04;;;;;;;8.02;6.15;;;18.70;99.90;;;;;;4650622;30;20547;-85
2022/06/25 06:53:30;;;;;;;8.10;6.47;;;18.80;99.90;;;;;;4637876;30;20058;-84
2022/06/25 06:55:56;;;;;;;6.32;5.68;;;18.70;99.90;;;;;;4666690;30;20051;-85
2022/06/25 06:58:21;;;;;;;6.70;5.20;;;18.60;99.90;;;;;;4632323;30;20054;-85
2022/06/25 07:00:47;;;;;;;8.30;4.97;;;18.70;99.90;;;;;;4648305;30;20046;-85
2022/06/25 07:03:12;;;;;;;6.68;5.97;;;18.70;99.90;;;;;;4666243;30;20051;-85
2022/06/25 07:05:38;;;;;;;8.63;5.68;;;18.70;99.90;;;;;;4675325;30;20049;-86
2022/06/25 07:08:04;;;;;;;7.00;5.75;;;18.70;99.90;;;;;;4646833;30;20047;-85
2022/06/25 07:10:29;;;;;;;6.18;5.00;;;18.80;99.90;;;;;;4652967;30;20046;-84
2022/06/25 07:12:55;;;;;;;9.02;6.10;;;18.80;99.90;;;;;;4661988;30;20175;-85
2022/06/25 07:15:21;;;;;;;6.15;5.55;;;18.80;99.90;;;;;;4652726;30;20517;-85
2022/06/25 07:17:46;;;;;;;7.45;5.80;;;18.90;99.90;;;;;;4663468;30;20400;-85
2022/06/25 07:20:12;;;;;;;6.00;5.38;;;18.90;99.90;;;;;;4658074;30;20054;-86
2022/06/25 07:22:38;;;;;;;8.35;4.53;;;18.90;99.90;;;;;;4639471;30;20107;-88
2022/06/25 07:25:04;;;;;;;9.52;4.88;;;18.90;99.90;;;;;;4639476;30;20396;-84
2022/06/25 07:27:30;;;;;;;6.25;4.78;;;19.00;99.90;;;;;;4618088;30;20083;-86
2022/06/25 07:29:56;;;;;;;9.23;4.97;;;19.10;99.90;;;;;;4647169;30;20088;-85
2022/06/25 07:32:21;;;;;;;6.65;5.53;;;19.10;99.90;;;;;;4647469;30;20404;-86
2022/06/25 07:34:47;;;;;;;7.25;5.18;;;19.30;99.90;;;;;;4643924;30;20436;-85
2022/06/25 07:37:13;;;;;;;6.20;4.85;;;19.40;99.90;;;;;;4643927;30;20055;-86
2022/06/25 07:39:39;;;;;;;7.45;4.75;;;19.60;99.90;;;;;;4635227;30;20043;-85
2022/06/25 07:42:04;;;;;;;7.18;4.18;;;19.90;99.90;;;;;;4672096;30;20050;-83
2022/06/25 07:44:30;;;;;;;6.28;4.60;;;20.40;99.90;;;;;;4654132;30;20050;-82
2022/06/25 07:46:56;;;;;;;6.05;3.67;;;20.90;99.90;;;;;;4649480;30;20101;-86
2022/06/25 07:49:21;;;;;;;5.03;3.72;;;21.60;99.90;;;;;;4641716;30;20054;-84
2022/06/25 07:51:56;;;;;;;3.85;3.28;;;22.40;99.90;;;;;;4645576;30;20518;-86
2022/06/25 07:54:26;;;;;;;4.88;3.50;;;22.90;99.90;;;;;;4653440;30;20137;-86
2022/06/25 07:56:52;;;;;;;3.67;3.28;;;23.50;99.90;;;;;;4666562;30;20110;-86
2022/06/25 07:59:17;;;;;;;5.30;3.22;;;24.10;99.90;;;;;;4657897;30;20503;-86
2022/06/25 08:01:43;;;;;;;4.55;3.08;;;24.60;99.90;;;;;;4630768;30;20488;-87
2022/06/25 08:04:09;;;;;;;4.72;2.90;;;24.80;99.90;;;;;;4665148;30;20404;-85
2022/06/25 08:06:38;;;;;;;5.70;3.22;;;25.10;99.90;;;;;;4648134;30;20065;-86
2022/06/25 08:09:04;;;;;;;5.65;2.35;;;25.50;99.90;;;;;;4663871;30;20039;-87
2022/06/25 08:11:30;;;;;;;7.88;2.80;;;25.80;99.90;;;;;;4653451;30;20046;-85
2022/06/25 08:13:56;;;;;;;3.75;2.67;;;26.00;99.90;;;;;;4679265;30;20050;-86
2022/06/25 08:16:25;;;;;;;5.15;2.55;;;26.20;99.90;;;;;;4643747;30;20533;-87
2022/06/25 08:18:51;;;;;;;3.35;3.00;;;26.20;99.90;;;;;;4648490;30;20482;-85
2022/06/25 08:21:16;;;;;;;3.63;2.58;;;26.30;99.90;;;;;;4663061;30;20148;-86
2022/06/25 08:23:42;;;;;;;5.55;2.90;;;26.40;99.90;;;;;;4659241;30;20062;-88
2022/06/25 08:26:10;;;;;;;3.88;2.20;;;26.70;99.90;;;;;;4638831;30;20419;-89
2022/06/25 08:28:36;;;;;;;4.72;2.10;;;27.00;99.90;;;;;;4648448;30;20133;-85
2022/06/25 08:31:03;;;;;;;2.83;1.90;;;27.00;99.90;;;;;;4666357;30;20129;-85
2022/06/25 08:33:28;;;;;;;3.08;1.58;;;26.90;99.90;;;;;;4649102;30;20054;-87
2022/06/25 08:35:54;;;;;;;4.80;1.90;;;26.80;99.90;;;;;;4668290;30;20149;-87
2022/06/25 08:38:19;;;;;;;4.63;2.10;;;26.90;99.90;;;;;;4649185;30;20070;-86
2022/06/25 08:40:45;;;;;;;4.70;1.90;;;27.10;99.90;;;;;;4649834;30;20039;-87
2022/06/25 08:43:11;;;;;;;2.78;1.65;;;27.20;99.90;;;;;;4649095;30;20039;-86
2022/06/25 08:45:36;;;;;;;2.88;1.42;;;27.20;99.90;;;;;;4657625;30;20132;-84
2022/06/25 08:48:15;;;;;;;2.95;1.17;;;27.30;99.90;;;;;;4653595;30;20074;-84
2022/06/25 08:50:42;;;;;;;3.08;1.17;;;27.30;99.90;;;;;;4647157;30;20101;-84
2022/06/25 08:53:09;;;;;;;2.63;1.20;;;27.20;99.90;;;;;;4638619;30;20050;-86
2022/06/25 08:55:38;;;;;;;2.38;1.17;;;26.90;99.90;;;;;;4641651;30;20083;-86
2022/06/25 08:58:05;;;;;;;2.95;1.25;;;26.90;99.90;;;;;;4679903;30;20293;-85
2022/06/25 09:00:33;;;;;;;2.38;1.10;;;27.00;99.90;;;;;;4672138;30;20054;-86
2022/06/25 09:03:00;;;;;;;3.08;1.20;;;27.10;99.90;;;;;;4663295;30;20075;-86
2022/06/25 09:05:34;;;;;;;2.28;1.15;;;27.30;99.90;;;;;;4647635;30;20050;-86
2022/06/25 09:08:01;;;;;;;3.95;1.40;;;27.40;99.90;;;;;;4634505;30;20133;-85
2022/06/25 09:10:29;;;;;;;4.40;1.25;;;27.40;99.90;;;;;;4634310;30;20052;-84
2022/06/25 09:12:57;;;;;;;3.53;1.40;;;27.30;99.90;;;;;;4647812;30;20050;-85
2022/06/25 09:15:31;;;;;;;2.83;1.10;;;27.40;99.90;;;;;;4640662;30;20046;-86
2022/06/25 09:18:04;;;;;;;3.53;1.27;;;26.90;99.90;;;;;;4679985;30;20056;-86
2022/06/25 09:20:31;;;;;;;;;;;26.40;99.90;;;;;;4665846;30;20414;-86
2022/06/25 09:23:00;;;;;;;2.55;1.00;;;26.00;99.90;;;;;;4650996;30;19927;-85
2022/06/25 09:25:28;;;;;;;3.92;1.10;;;25.90;99.90;;;;;;4660431;30;20146;-84
2022/06/25 09:27:54;;;;;;;2.17;1.00;;;25.70;99.90;;;;;;4671993;30;20042;-85
2022/06/25 09:30:21;;;;;;;2.75;1.02;;;25.60;99.90;;;;;;4660809;30;20046;-85
2022/06/25 09:32:50;;;;;;;2.95;0.80;;;25.70;99.90;;;;;;4653549;30;20535;-86
2022/06/25 09:35:34;;;;;;;3.30;1.08;;;26.00;99.90;;;;;;4675959;30;20189;-84
2022/06/25 09:38:09;;;;;;;3.83;1.08;;;26.40;99.90;;;;;;4650945;30;20137;-87
2022/06/25 09:40:37;;;;;;;3.63;1.10;;;26.80;99.90;;;;;;4665044;30;20426;-84
2022/06/25 09:43:24;;;;;;;2.33;1.00;;;27.00;99.90;;;;;;4679124;30;20054;-85
2022/06/25 09:45:52;;;;;;;4.95;0.88;;;26.70;99.90;;;;;;4648916;30;20047;-84
2022/06/25 09:48:23;;;;;;;2.15;0.88;;;26.20;99.90;;;;;;4634404;30;20118;-85
2022/06/25 09:51:07;;;;;;;1.42;0.75;;;25.70;99.90;;;;;;4633923;30;20148;-86
2022/06/25 09:53:34;;;;;;;2.78;0.90;;;25.40;99.90;;;;;;4647500;30;20129;-84
2022/06/25 09:56:03;;;;;;;4.45;1.13;;;25.10;99.90;;;;;;4633799;30;20054;-85
2022/06/25 09:58:31;;;;;;;3.03;1.42;;;24.70;99.90;;;;;;4646523;30;20078;-86
2022/06/25 10:00:57;;;;;;;2.83;1.10;;;24.40;99.90;;;;;;4656917;30;20062;-84
2022/06/25 10:03:25;;;;;;;3.60;1.80;;;24.10;99.90;;;;;;4678823;30;20569;-85
2022/06/25 10:05:53;;;;;;;1.98;1.10;;;23.80;99.90;;;;;;4661042;30;20404;-84
2022/06/25 10:08:21;;;;;;;4.35;1.40;;;23.60;99.90;;;;;;4646493;30;20097;-84
2022/06/25 10:10:50;;;;;;;3.80;1.27;;;23.40;99.90;;;;;;4656388;30;20059;-85
2022/06/25 10:13:16;;;;;;;2.78;1.40;;;23.50;99.90;;;;;;4653844;30;20058;-85
2022/06/25 10:15:43;;;;;;;1.88;1.30;;;24.00;99.90;;;;;;4662619;30;20054;-82
2022/06/25 10:18:10;;;;;;;3.42;1.50;;;24.50;99.90;;;;;;4661055;30;20051;-85
2022/06/25 10:20:37;;;;;;;2.85;1.42;;;25.00;99.90;;;;;;4648136;30;20054;-84
2022/06/25 10:23:04;;;;;;;2.83;1.23;;;25.50;99.90;;;;;;4667726;30;20186;-85
2022/06/25 10:25:31;;;;;;;3.88;1.33;;;25.80;99.90;;;;;;4654305;30;20418;-85
2022/06/25 10:28:15;;;;;;;2.40;1.30;;;26.20;99.90;;;;;;4653142;30;20049;-83
2022/06/25 10:30:52;;;;;;;1.83;1.13;;;26.70;99.90;;;;;;4649762;30;20559;-84
2022/06/25 10:33:23;;;;;;;2.78;1.42;;;27.20;99.90;;;;;;4663525;30;20120;-84
2022/06/25 10:35:51;;;;;;;2.47;1.00;;;27.60;99.90;;;;;;4663327;30;20061;-85
2022/06/25 10:38:21;;;;;;;2.80;1.35;;;28.00;99.90;;;;;;4678630;30;20138;-84
2022/06/25 10:43:48;;;;;;;4.85;1.40;;;27.20;99.90;;;;;;4655778;30;20089;-84
2022/06/25 10:46:37;;;;;;;3.80;1.40;;;26.90;99.90;;;;;;4671371;30;20051;-86
2022/06/25 10:49:11;;;;;;;3.63;1.40;;;26.80;99.90;;;;;;4647756;30;20074;-86
2022/06/25 10:51:46;;;;;;;2.13;1.27;;;26.60;99.90;;;;;;4646519;30;20053;-86
2022/06/25 10:54:23;;;;;;;3.17;1.70;;;26.30;99.90;;;;;;4651615;30;20050;-86
2022/06/25 10:56:51;;;;;;;2.78;1.40;;;26.40;99.90;;;;;;4635220;30;20055;-86
2022/06/25 10:59:35;;;;;;;5.55;1.95;;;26.50;99.90;;;;;;4653529;30;20397;-86
2022/06/25 11:02:03;;;;;;;3.33;1.40;;;26.30;99.90;;;;;;4650093;30;20592;-85
2022/06/25 11:04:30;;;;;;;3.58;1.88;;;25.90;99.90;;;;;;4670736;30;20494;-85
2022/06/25 11:07:19;;;;;;;2.50;1.40;;;25.40;99.90;;;;;;4648316;30;20070;-86
2022/06/25 11:09:54;;;;;;;3.05;1.80;;;24.90;99.90;;;;;;4654744;30;20042;-85
2022/06/25 11:12:20;;;;;;;2.25;1.55;;;24.50;99.90;;;;;;4664494;30;20582;-87
2022/06/25 11:15:04;;;;;;;4.57;2.13;;;24.00;99.90;;;;;;4660964;30;20043;-88
2022/06/25 11:17:30;;;;;;;3.65;2.83;;;23.60;99.90;;;;;;4661183;30;20062;-88
2022/06/25 11:20:07;;;;;;;3.28;2.20;;;23.30;99.90;;;;;;4635128;30;20050;-88
2022/06/25 11:22:33;;;;;;;4.03;2.75;;;23.00;99.90;;;;;;4638910;30;20053;-87
2022/06/25 11:30:28;;;;;;;5.03;2.58;;;22.30;99.90;;;;;;4645832;30;20529;-83
2022/06/25 11:32:54;;;;;;;4.55;2.90;;;22.30;99.90;;;;;;4647222;30;20129;-83
2022/06/25 11:35:20;;;;;;;4.32;3.17;;;22.30;99.90;;;;;;4667259;30;20121;-84
2022/06/25 11:37:45;;;;;;;3.47;2.83;;;22.50;99.90;;;;;;4662092;30;20050;-84
2022/06/25 11:40:16;;;;;;;4.60;2.80;;;22.90;99.90;;;;;;4666772;30;20129;-83
2022/06/25 11:42:43;;;;;;;4.30;2.67;;;23.20;99.90;;;;;;4631443;30;20418;-82
2022/06/25 11:45:09;;;;;;;4.63;3.03;;;23.50;99.90;;;;;;4649463;30;20046;-84
2022/06/25 11:47:35;;;;;;;3.88;2.58;;;23.70;99.90;;;;;;4668236;30;20418;-83
2022/06/25 11:50:07;;;;;;;2.90;2.70;;;23.80;99.90;;;;;;4651879;30;20046;-83
2022/06/25 11:52:33;;;;;;;3.63;2.70;;;23.70;99.90;;;;;;4673539;30;20082;-83
2022/06/25 11:54:58;;;;;;;4.53;2.70;;;23.60;99.90;;;;;;4680815;30;20108;-84
2022/06/25 11:57:26;;;;;;;4.32;2.90;;;23.40;99.90;;;;;;4668004;30;20543;-83
2022/06/25 11:59:54;;;;;;;4.00;2.85;;;23.20;99.90;;;;;;4662869;30;20446;-83
2022/06/25 12:02:20;;;;;;;4.55;3.30;;;23.10;99.90;;;;;;4662265;30;20077;-83
2022/06/25 12:04:55;;;;;;;4.30;3.22;;;22.80;99.90;;;;;;4654685;30;20073;-82
2022/06/25 12:07:32;;;;;;;3.35;3.05;;;22.60;99.90;;;;;;4665182;30;20057;-83
2022/06/25 12:10:00;;;;;;;3.42;3.08;;;22.40;99.90;;;;;;4658463;30;20081;-84
2022/06/25 12:12:27;;;;;;;6.20;3.50;;;22.20;99.90;;;;;;4651565;30;20090;-83
2022/06/25 12:14:55;;;;;;;4.57;3.40;;;22.00;99.90;;;;;;4651410;30;20097;-83
2022/06/25 12:17:21;;;;;;;4.35;3.50;;;22.00;99.90;;;;;;4654091;30;20079;-83
2022/06/25 12:19:51;;;;;;;4.97;4.22;;;21.90;99.90;;;;;;4633183;30;20047;-84
2022/06/25 12:22:25;;;;;;;4.68;4.18;;;21.80;99.90;;;;;;4646887;30;20042;-83
2022/06/25 12:24:53;;;;;;;4.93;4.20;;;21.90;99.90;;;;;;4648766;30;20043;-84
2022/06/25 12:27:19;;;;;;;5.35;4.30;;;22.00;99.90;;;;;;4667309;30;20058;-83
2022/06/25 12:29:49;;;;;;;9.60;4.25;;;22.00;99.90;;;;;;4636605;30;20050;-82
2022/06/25 12:32:16;;;;;;;5.63;4.75;;;22.20;99.90;;;;;;4648215;30;20523;-84
2022/06/25 12:34:51;;;;;;;4.90;4.50;;;22.60;99.90;;;;;;4651266;30;20082;-85
2022/06/25 12:37:31;;;;;;;6.35;4.35;;;22.90;99.90;;;;;;4649129;30;20487;-84
2022/06/25 12:39:57;;;;;;;8.73;3.92;;;23.30;99.90;;;;;;4669363;30;20050;-84
2022/06/25 12:42:24;;;;;;;4.15;2.72;;;23.50;99.90;;;;;;4662820;30;20042;-84
2022/06/25 12:44:50;;;;;;;3.30;2.80;;;23.60;99.90;;;;;;4650169;30;20117;-84
2022/06/25 12:47:17;;;;;;;4.07;3.35;;;23.60;99.90;;;;;;4668606;30;20725;-84
2022/06/25 12:49:56;;;;;;;3.80;2.72;;;23.50;99.90;;;;;;4634189;30;20105;-84
2022/06/25 12:52:24;;;;;;;3.47;3.10;;;23.50;99.90;;;;;;4636477;30;20061;-85
2022/06/25 12:54:55;;;;;;;2.72;2.53;;;23.40;99.90;;;;;;4669583;30;20068;-85
2022/06/25 12:57:29;;;;;;;4.43;2.70;;;23.30;99.90;;;;;;4661573;30;20047;-85
2022/06/25 12:59:56;;;;;;;3.22;2.72;;;23.20;99.90;;;;;;4647739;30;20472;-85
2022/06/25 13:02:22;;;;;;;3.53;2.85;;;23.10;99.90;;;;;;4642349;30;20057;-85
2022/06/25 13:04:49;;;;;;;4.28;2.58;;;22.90;99.90;;;;;;4651125;30;20054;-85
2022/06/25 13:07:14;;;;;;;3.53;2.50;;;22.90;99.90;;;;;;4659628;30;20090;-85
2022/06/25 13:09:45;;;;;;;4.88;2.30;;;22.80;99.90;;;;;;4662974;30;20082;-85
2022/06/25 13:12:12;;;;;;;2.67;2.33;;;22.70;99.90;;;;;;4652097;30;20507;-81
2022/06/25 13:14:37;;;;;;;3.58;2.28;;;22.80;99.90;;;;;;4668513;30;20047;-84
2022/06/25 13:17:04;;;;;;;3.50;2.30;;;22.80;99.90;;;;;;4679503;30;20058;-83
2022/06/25 13:19:31;;;;;;;2.65;2.13;;;23.20;99.90;;;;;;4669633;30;20507;-84
2022/06/25 13:21:58;;;;;;;3.08;2.17;;;23.60;99.90;;;;;;4648124;30;20047;-84
2022/06/25 13:24:24;;;;;;;3.92;2.20;;;23.90;99.90;;;;;;4648060;30;20059;-84
2022/06/25 13:26:50;;;;;;;3.83;2.40;;;24.10;99.90;;;;;;4648028;30;20051;-84
2022/06/25 13:29:16;;;;;;;3.38;2.70;;;24.30;99.90;;;;;;4656178;30;20050;-83
2022/06/25 13:31:41;;;;;;;5.38;3.20;;;24.70;99.90;;;;;;4656375;30;20116;-83
2022/06/25 13:34:07;;;;;;;4.03;2.50;;;25.50;99.90;;;;;;4670603;30;20049;-84
2022/06/25 13:36:34;;;;;;;3.38;2.67;;;26.10;99.90;;;;;;4654854;30;20047;-84
2022/06/25 13:39:00;;;;;;;3.67;2.25;;;26.80;99.90;;;;;;4673867;30;20141;-84
2022/06/25 13:41:25;;;;;;;3.55;2.15;;;27.30;99.90;;;;;;4643951;30;20719;-84
2022/06/25 13:43:54;;;;;;;2.63;1.10;;;27.50;99.90;;;;;;4644912;30;20061;-84
2022/06/25 13:46:21;;;;;;;2.83;0.95;;;27.40;99.90;;;;;;4645390;30;20043;-83
2022/06/25 13:48:48;;;;;;;1.40;1.00;;;27.10;99.90;;;;;;4646100;30;20113;-84
2022/06/25 13:51:13;;;;;;;3.03;1.00;;;26.90;99.90;;;;;;4663258;30;20051;-83
2022/06/25 13:53:39;;;;;;;1.08;0.82;;;26.90;99.90;;;;;;4642579;30;20070;-83
2022/06/25 13:56:05;;;;;;;1.60;0.70;;;26.80;99.90;;;;;;4647492;30;20047;-83
2022/06/25 13:58:30;;;;;;;0.80;0.80;;;26.70;99.90;;;;;;4646672;30;20054;-82
2022/06/25 14:00:57;;;;;;;2.00;0.90;;;26.60;99.90;;;;;;4653843;30;20049;-84
2022/06/25 14:03:23;;;;;;;2.58;0.95;;;26.80;99.90;;;;;;4643253;30;20481;-84
2022/06/25 14:05:49;;;;;;;1.92;1.00;;;27.00;99.90;;;;;;4662593;30;20519;-83
2022/06/25 14:08:15;;;;;;;2.10;0.80;;;27.10;99.90;;;;;;4633351;30;20063;-84
2022/06/25 14:10:41;;;;;;;1.98;0.70;;;27.10;99.90;;;;;;4653311;30;20050;-84
2022/06/25 14:13:06;;;;;;;1.73;0.77;;;27.20;99.90;;;;;;4656521;30;20054;-83
2022/06/25 14:15:32;;;;;;;0.85;0.73;;;27.40;99.90;;;;;;4660184;30;20406;-83
2022/06/25 14:18:01;;;;;;;0.70;0.70;;;27.70;99.90;;;;;;4662946;30;20058;-82
2022/06/25 14:20:26;;;;;;;1.52;0.90;;;27.80;99.90;;;;;;4649596;30;20511;-83
2022/06/25 14:22:52;;;;;;;2.67;0.95;;;28.00;99.90;;;;;;4650490;30;20108;-83
2022/06/25 14:25:20;;;;;;;1.90;0.77;;;28.20;99.90;;;;;;4647134;30;20054;-82
2022/06/25 14:27:46;;;;;;;2.05;0.77;;;28.30;99.90;;;;;;4646641;30;20047;-83
2022/06/25 14:30:12;;;;;;;4.43;1.00;;;28.30;99.90;;;;;;4657726;30;20071;-83
2022/06/25 14:32:38;;;;;;;3.88;1.15;;;28.40;99.90;;;;;;4663873;30;20056;-83
2022/06/25 14:35:04;;;;;;;4.13;0.90;;;28.40;99.90;;;;;;4661810;30;20567;-83
2022/06/25 14:42:58;;;;;;;2.05;0.98;;;28.30;99.90;;;;;;4640375;30;20093;-80
2022/06/25 14:45:24;;;;;;;2.30;0.90;;;28.00;99.90;;;;;;4646416;30;20075;-81
2022/06/25 14:47:49;;;;;;;2.15;1.00;;;27.70;99.90;;;;;;4646209;30;20567;-83
2022/06/25 14:50:15;;;;;;;1.73;1.08;;;27.20;99.90;;;;;;4639264;30;20133;-85
2022/06/25 14:52:41;;;;;;;2.83;1.20;;;26.70;99.90;;;;;;4656212;30;20055;-85
2022/06/25 14:55:08;;;;;;;2.22;0.70;;;26.40;99.90;;;;;;4670335;30;20057;-84
2022/06/25 14:57:33;;;;;;;1.58;1.00;;;26.30;99.90;;;;;;4645986;30;20054;-84
2022/06/25 14:59:59;;;;;;;3.35;2.10;;;26.30;99.90;;;;;;4666822;30;20149;-85
2022/06/25 15:02:24;;;;;;;3.65;3.17;;;26.40;99.90;;;;;;4660954;30;20058;-84
2022/06/25 15:04:50;;;;;;;5.88;3.70;;;26.30;99.90;;;;;;4660792;30;20043;-84
2022/06/25 15:07:16;;;;;;;7.35;6.05;;;26.30;99.90;;;;;;4659737;30;20058;-86
2022/06/25 15:09:41;;;;;;;9.10;6.13;;;26.30;99.90;;;;;;4631580;30;20062;-83
2022/06/25 15:12:07;;;;;;;7.07;5.82;;;26.10;99.90;;;;;;4646053;30;20051;-85
2022/06/25 15:14:33;;;;;;;6.35;5.43;;;25.90;99.90;;;;;;4655859;30;20546;-83
2022/06/25 15:16:58;;;;;;;6.20;5.53;;;25.80;99.90;;;;;;4645498;30;20046;-83
2022/06/25 15:19:24;;;;;;;7.28;6.57;;;25.70;99.90;;;;;;4661013;30;20531;-84
2022/06/25 15:21:49;;;;;;;8.10;7.30;;;25.60;99.90;;;;;;4650051;30;20038;-81
2022/06/25 15:24:15;;;;;;;8.43;6.95;;;25.40;99.90;;;;;;4659329;30;20415;-83
2022/06/25 15:26:41;;;;;;;7.93;6.88;;;25.30;99.90;;;;;;4669474;30;20094;-82
2022/06/25 15:29:07;;;;;;;8.43;7.18;;;25.10;99.90;;;;;;4648977;30;20046;-83
2022/06/25 15:31:32;;;;;;;8.45;7.00;;;25.00;99.90;;;;;;4674113;30;20152;-83
2022/06/25 15:33:58;;;;;;;8.50;6.80;;;24.90;99.90;;;;;;4676867;30;20053;-83
2022/06/25 15:36:25;;;;;;;7.63;6.85;;;24.70;99.90;;;;;;4645041;30;20458;-82
2022/06/25 15:38:51;;;;;;;8.90;6.60;;;24.60;99.90;;;;;;4634920;30;20043;-84
2022/06/25 15:41:16;;;;;;;8.52;6.50;;;24.50;99.90;;;;;;4643914;30;20054;-83
2022/06/25 15:43:42;;;;;;;6.30;5.70;;;24.50;99.90;;;;;;4653645;30;20050;-83
2022/06/25 15:46:08;;;;;;;6.30;4.80;;;24.50;99.90;;;;;;4653944;30;20598;-83
2022/06/25 15:48:33;;;;;;;7.13;5.00;;;24.40;99.90;;;;;;4649178;30;20046;-83
2022/06/25 15:50:59;;;;;;;6.45;5.20;;;24.30;99.90;;;;;;4642657;30;20047;-83
2022/06/25 15:53:25;;;;;;;5.72;5.00;;;24.30;99.90;;;;;;4658344;30;20215;-83
2022/06/25 15:55:50;;;;;;;6.65;5.10;;;24.30;99.90;;;;;;4664204;30;20042;-83
2022/06/25 15:58:16;;;;;;;6.18;5.13;;;24.30;99.90;;;;;;4647353;30;20058;-83
2022/06/25 16:00:42;;;;;;;5.95;5.05;;;24.30;99.90;;;;;;4635721;30;20416;-83
2022/06/25 16:03:08;;;;;;;5.85;4.55;;;24.30;99.90;;;;;;4647722;30;20054;-83
2022/06/25 16:05:34;;;;;;;5.53;4.60;;;24.20;99.90;;;;;;4656052;30;20089;-83
2022/06/25 16:08:00;;;;;;;4.80;4.07;;;24.10;99.90;;;;;;4655342;30;20082;-83
2022/06/25 16:10:26;;;;;;;5.13;4.32;;;24.00;99.90;;;;;;4669794;30;20097;-83
2022/06/25 16:12:51;;;;;;;5.65;4.10;;;23.80;99.90;;;;;;4674543;30;20042;-83
2022/06/25 16:15:17;;;;;;;6.00;4.03;;;23.70;99.90;;;;;;4648826;30;20496;-81
2022/06/25 16:17:43;;;;;;;6.57;4.70;;;23.60;99.90;;;;;;4660842;30;20046;-84
2022/06/25 16:20:09;;;;;;;6.10;4.90;;;23.60;99.90;;;;;;4648926;30;20043;-84
2022/06/25 16:22:36;;;;;;;5.72;4.70;;;23.50;99.90;;;;;;4639575;30;20415;-84
2022/06/25 16:25:02;;;;;;;6.75;4.85;;;23.40;99.90;;;;;;4654338;30;20097;-84
2022/06/25 16:27:27;;;;;;;5.88;5.18;;;23.40;99.90;;;;;;4640865;30;20042;-84
2022/06/25 16:29:53;;;;;;;6.90;5.47;;;23.40;99.90;;;;;;4617681;31;20047;-84
2022/06/25 16:32:18;;;;;;;6.13;5.53;;;23.40;99.90;;;;;;4644662;30;20393;-84
2022/06/25 16:34:45;;;;;;;8.13;5.88;;;23.40;99.90;;;;;;4617972;30;20161;-84
2022/06/25 16:37:10;;;;;;;8.52;6.60;;;23.30;99.90;;;;;;4641842;30;20051;-84
2022/06/25 16:39:36;;;;;;;6.78;5.93;;;23.30;99.90;;;;;;4657075;30;20113;-84
2022/06/25 16:42:02;;;;;;;8.77;6.28;;;23.20;99.90;;;;;;4635686;30;20126;-84
2022/06/25 16:44:28;;;;;;;6.55;5.90;;;23.10;99.90;;;;;;4646079;30;20043;-85
2022/06/25 16:46:54;;;;;;;6.05;5.15;;;23.00;99.90;;;;;;4645417;30;20122;-84
2022/06/25 16:49:23;;;;;;;8.05;5.38;;;22.90;99.90;;;;;;4645505;30;20126;-84
2022/06/25 16:51:51;;;;;;;5.22;4.72;;;22.80;99.90;;;;;;4645799;30;20054;-84
2022/06/25 16:54:18;;;;;;;7.05;5.32;;;22.70;99.90;;;;;;4655670;30;20389;-83
2022/06/25 16:56:45;;;;;;;8.35;5.85;;;22.60;99.90;;;;;;4647870;30;20101;-83
2022/06/25 16:59:12;;;;;;;6.53;5.57;;;22.60;99.90;;;;;;4636171;30;20044;-84
2022/06/25 17:01:38;;;;;;;7.22;5.00;;;22.60;99.90;;;;;;4645601;30;20078;-85
2022/06/25 17:04:05;;;;;;;6.10;4.53;;;22.40;99.90;;;;;;4626516;30;20492;-84
2022/06/25 17:06:31;;;;;;;6.07;5.25;;;22.40;99.90;;;;;;4640883;30;20051;-84
2022/06/25 17:08:57;;;;;;;7.57;5.35;;;22.30;99.90;;;;;;4645290;30;20189;-84
2022/06/25 17:11:24;;;;;;;8.25;5.90;;;22.30;99.90;;;;;;4631393;31;20567;-84
2022/06/25 17:13:50;;;;;;;7.13;5.95;;;22.20;99.90;;;;;;4637277;30;20047;-83
2022/06/25 17:16:16;;;;;;;7.53;6.18;;;22.20;99.90;;;;;;4633769;30;20475;-84
2022/06/25 17:18:43;;;;;;;8.15;6.47;;;22.20;99.90;;;;;;4646394;30;20055;-84
2022/06/25 17:21:11;;;;;;;7.63;6.82;;;22.20;99.90;;;;;;4622200;30;20087;-84
2022/06/25 17:23:41;;;;;;;7.50;6.05;;;22.10;99.90;;;;;;4645248;30;20096;-84
2022/06/25 17:26:07;;;;;;;7.93;6.35;;;22.10;99.90;;;;;;4631192;31;20194;-84
2022/06/25 17:28:33;;;;;;;8.30;6.47;;;22.10;99.90;;;;;;4628284;30;20043;-83
2022/06/25 17:30:59;;;;;;;8.05;7.18;;;22.10;99.90;;;;;;4648070;30;20053;-84
2022/06/25 17:33:25;;;;;;;8.38;7.13;;;22.20;99.90;;;;;;4634169;30;20051;-84
2022/06/25 17:35:51;;;;;;;8.77;7.88;;;22.20;99.90;;;;;;4631084;31;20054;-84
2022/06/25 17:38:16;;;;;;;8.60;7.70;;;22.30;99.90;;;;;;4654382;30;20152;-84
2022/06/25 17:40:42;;;;;;;7.93;7.20;;;22.30;99.90;;;;;;4638854;30;20055;-84
2022/06/25 17:43:08;;;;;;;9.45;8.63;;;22.30;99.90;;;;;;4645227;30;20082;-84
2022/06/25 17:45:35;;;;;;;9.38;8.38;;;22.30;99.90;;;;;;4644289;30;20563;-84
2022/06/25 17:48:02;;;;;;;8.68;7.78;;;22.20;99.90;;;;;;4644593;30;20043;-84
2022/06/25 17:50:28;;;;;;;8.73;7.88;;;22.20;99.90;;;;;;4629683;30;20414;-84
2022/06/25 17:52:53;;;;;;;9.07;7.63;;;22.10;99.90;;;;;;4637553;30;20047;-84
2022/06/25 17:55:20;;;;;;;9.10;7.55;;;22.00;99.90;;;;;;4630618;31;20055;-84
2022/06/25 17:57:46;;;;;;;9.15;7.53;;;22.00;99.90;;;;;;4644479;30;20137;-84
2022/06/25 18:00:14;;;;;;;8.70;7.72;;;21.90;99.90;;;;;;4655285;30;20143;-84
2022/06/25 18:02:41;;;;;;;8.23;7.43;;;21.90;99.90;;;;;;4638993;30;20075;-84
2022/06/25 18:05:07;;;;;;;9.35;7.88;;;21.90;99.90;;;;;;4630490;31;20503;-84
2022/06/25 18:07:34;;;;;;;8.55;7.75;;;21.80;99.90;;;;;;4644325;30;20050;-84
2022/06/25 18:10:00;;;;;;;8.93;7.93;;;21.80;99.90;;;;;;4644216;30;20063;-84
2022/06/25 18:12:26;;;;;;;8.73;7.80;;;21.70;99.90;;;;;;4658684;30;20054;-83
2022/06/25 18:14:52;;;;;;;9.55;8.65;;;21.70;99.90;;;;;;4644577;30;20057;-84
2022/06/25 18:17:18;;;;;;;8.77;7.97;;;21.60;99.90;;;;;;4644578;30;20050;-84
2022/06/25 18:19:43;;;;;;;10.43;8.93;;;21.50;99.90;;;;;;4615884;31;20519;-84
2022/06/25 18:22:09;;;;;;;10.07;9.18;;;21.50;99.90;;;;;;4644489;30;20512;-84
2022/06/25 18:24:35;;;;;;;10.82;9.85;;;21.40;99.90;;;;;;4659376;30;20046;-84
2022/06/25 18:27:01;;;;;;;10.82;9.75;;;21.40;99.90;;;;;;4630062;31;20063;-84
2022/06/25 18:29:27;;;;;;;11.27;10.20;;;21.30;99.90;;;;;;4643991;30;20368;-84